^^
Datos históricos de la estación: Murcia-Puente Tocinos
Diario Informe para Abril 7, 2019 Unidades:  Métrico    Ingés   Ambas
Diario Semanal Mensual Anual
  Máxima: Mínima: Promedio:
Temperatura: 39 °C 26.7 °C 31.7 °C
Punto de rocio: 20.8 °C 12.5 °C 17.2 °C
Humedad: 67% 21% 46%
Velocidad viento: 26.2km/h 0km/h 9.6km/h
Racha viento: 48.1km/h - -
Viento- - SE
Presión: 1012.8 hPa 1005.8 hPa -
Precipitación: 0.0 mm    
 
 
Tabla de datos para Abril 7, 2019
Hora Temperatura Punto de rocio Presión Viento Velocidad viento Racha viento Humedad Intensidad lluvia(por hora) Nubes
00:04 28.2 °C 19.2 °C 1012.2 hPa NNE 10 km/h 5.8 km/h 58% 0.0 mm
00:09 28.3 °C 18.4 °C 1012.2 hPa Este 5.8 km/h 9.3 km/h 55% 0.0 mm
00:14 28.7 °C 18.5 °C 1012.2 hPa NE 5.8 km/h 7.4 km/h 54% 0.0 mm
00:19 28.8 °C 19.2 °C 1012.5 hPa ONO 5 km/h 14.8 km/h 56% 0.0 mm
00:24 28.5 °C 19.4 °C 1012.5 hPa NO 5 km/h 20.4 km/h 58% 0.0 mm
00:29 28.3 °C 19.5 °C 1012.5 hPa North 11.9 km/h 12.2 km/h 59% 0.0 mm
00:34 28.2 °C 19.4 °C 1012.1 hPa Oeste 11.9 km/h 14.8 km/h 59% 0.0 mm
00:39 28.1 °C 19.3 °C 1012.1 hPa NO 10.3 km/h 14.8 km/h 59% 0.0 mm
00:44 28 °C 19.2 °C 1012.1 hPa NO 10.3 km/h 11.1 km/h 59% 0.0 mm
00:49 28 °C 19.5 °C 1012.3 hPa North 8.4 km/h 9.3 km/h 60% 0.0 mm
00:54 28 °C 19.2 °C 1012.3 hPa NNE 8.4 km/h 9.5 km/h 59% 0.0 mm
00:59 28 °C 19.2 °C 1012.3 hPa North 6.4 km/h 7.4 km/h 59% 0.0 mm
01:04 28 °C 19.2 °C 1012.0 hPa NNO 6.4 km/h 9.3 km/h 59% 0.0 mm
01:09 28 °C 19.2 °C 1012.0 hPa ONO 5.8 km/h 11.1 km/h 59% 0.0 mm
01:14 27.9 °C 19.4 °C 1012.0 hPa NNE 5.8 km/h 5.6 km/h 60% 0.0 mm
01:19 27.9 °C 19.7 °C 1012.2 hPa Oeste 5.8 km/h 9.3 km/h 61% 0.0 mm
01:24 27.8 °C 20.1 °C 1012.2 hPa Oeste 5.8 km/h 16.7 km/h 63% 0.0 mm
01:29 27.7 °C 20.5 °C 1012.2 hPa NO 10 km/h 11.1 km/h 65% 0.0 mm
01:34 27.7 °C 20.8 °C 1012.8 hPa NE 10 km/h 9.3 km/h 66% 0.0 mm
01:39 27.7 °C 20.8 °C 1012.8 hPa NE 5.8 km/h 8.4 km/h 66% 0.0 mm
01:44 27.7 °C 20.8 °C 1012.8 hPa ENE 5.8 km/h 14.8 km/h 66% 0.0 mm
01:49 27.7 °C 20.8 °C 1012.1 hPa NE 9.5 km/h 13 km/h 66% 0.0 mm
01:54 27.6 °C 20.7 °C 1012.1 hPa ENE 9.5 km/h 12.2 km/h 66% 0.0 mm
01:59 27.4 °C 20.5 °C 1012.1 hPa ESE 8.4 km/h 13 km/h 66% 0.0 mm
02:04 27.3 °C 20.4 °C 1011.1 hPa ENE 8.4 km/h 12.2 km/h 66% 0.0 mm
02:09 27.3 °C 20.4 °C 1011.1 hPa NNE 7.6 km/h 11.1 km/h 66% 0.0 mm
02:14 27.3 °C 20.4 °C 1011.1 hPa NNE 7.6 km/h 14.8 km/h 66% 0.0 mm
02:19 27.3 °C 20.6 °C 1010.7 hPa NE 11.9 km/h 27 km/h 67% 0.0 mm
02:24 27.3 °C 20.6 °C 1010.7 hPa NE 11.9 km/h 25.9 km/h 67% 0.0 mm
02:29 27.3 °C 20.4 °C 1010.7 hPa NE 19 km/h 22.2 km/h 66% 0.0 mm
02:34 27.2 °C 20.3 °C 1010.8 hPa NE 19 km/h 24.1 km/h 66% 0.0 mm
02:39 27.2 °C 20.1 °C 1010.8 hPa NNE 16.1 km/h 22.2 km/h 65% 0.0 mm
02:44 27.3 °C 20.2 °C 1010.8 hPa NE 16.1 km/h 16.7 km/h 65% 0.0 mm
02:49 27.3 °C 19.9 °C 1010.5 hPa NE 14 km/h 14.8 km/h 64% 0.0 mm
02:54 27.3 °C 19.9 °C 1010.5 hPa NE 14 km/h 20.4 km/h 64% 0.0 mm
02:59 27.3 °C 19.6 °C 1010.5 hPa North 11.9 km/h 18.5 km/h 63% 0.0 mm
03:04 27.3 °C 19.9 °C 1010.4 hPa NNE 11.9 km/h 13 km/h 64% 0.0 mm
03:09 27.3 °C 19.9 °C 1010.4 hPa NNE 9.5 km/h 14.8 km/h 64% 0.0 mm
03:14 27.3 °C 19.9 °C 1010.4 hPa ONO 9.5 km/h 14.8 km/h 64% 0.0 mm
03:19 27.3 °C 19.9 °C 1010.4 hPa North 8.7 km/h 13 km/h 64% 0.0 mm
03:24 27.3 °C 19.9 °C 1010.4 hPa NO 8.7 km/h 11.1 km/h 64% 0.0 mm
03:29 27.3 °C 20.2 °C 1010.4 hPa Oeste 6.9 km/h 10.3 km/h 65% 0.0 mm
03:34 27.3 °C 20.2 °C 1010.8 hPa NE 6.9 km/h 5.6 km/h 65% 0.0 mm
03:39 27.3 °C 20.2 °C 1010.8 hPa NE 5 km/h 9.3 km/h 65% 0.0 mm
03:44 27.3 °C 20.2 °C 1010.8 hPa NNE 5 km/h 7.4 km/h 65% 0.0 mm
03:49 27.3 °C 20.2 °C 1010.5 hPa ONO 4.7 km/h 6.4 km/h 65% 0.0 mm
03:54 27.3 °C 20.4 °C 1010.5 hPa ONO 4.7 km/h 6.4 km/h 66% 0.0 mm
03:59 27.3 °C 20.4 °C 1010.5 hPa ONO 3.9 km/h 1.9 km/h 66% 0.0 mm
04:04 27.3 °C 20.4 °C 1010.4 hPa North 3.9 km/h 7.4 km/h 66% 0.0 mm
04:09 27.2 °C 20.6 °C 1010.4 hPa NNE 4.7 km/h 9.3 km/h 67% 0.0 mm
04:14 27.1 °C 20.2 °C 1010.4 hPa NNE 4.7 km/h 11.9 km/h 66% 0.0 mm
04:19 27 °C 20.1 °C 1009.9 hPa NNE 7.6 km/h 7.4 km/h 66% 0.0 mm
04:24 27 °C 20.3 °C 1009.9 hPa North 7.6 km/h 7.4 km/h 67% 0.0 mm
04:29 27 °C 20.3 °C 1009.9 hPa NO 4.7 km/h 3.9 km/h 67% 0.0 mm
04:34 27 °C 20.3 °C 1010.3 hPa NO 4.7 km/h 5.6 km/h 67% 0.0 mm
04:39 27 °C 20.3 °C 1010.3 hPa Oeste 3.2 km/h 7.4 km/h 67% 0.0 mm
04:44 27 °C 20.3 °C 1010.3 hPa NE 3.2 km/h 9.3 km/h 67% 0.0 mm
04:49 27.1 °C 20.4 °C 1010.3 hPa ESE 5 km/h 11.1 km/h 67% 0.0 mm
04:54 27.1 °C 20.2 °C 1010.3 hPa Este 5 km/h 13 km/h 66% 0.0 mm
04:59 26.9 °C 20 °C 1010.3 hPa SE 7.6 km/h 8.7 km/h 66% 0.0 mm
05:04 26.9 °C 20.3 °C 1010.3 hPa Este 7.6 km/h 13 km/h 67% 0.0 mm
05:09 26.9 °C 20.3 °C 1010.3 hPa NE 6.4 km/h 12.2 km/h 67% 0.0 mm
05:14 26.8 °C 20.2 °C 1010.3 hPa NE 6.4 km/h 18.5 km/h 67% 0.0 mm
05:19 26.8 °C 19.9 °C 1009.4 hPa ENE 11.1 km/h 24.1 km/h 66% 0.0 mm
05:24 26.7 °C 19.8 °C 1009.4 hPa NE 11.1 km/h 16.7 km/h 66% 0.0 mm
05:29 26.7 °C 19.8 °C 1009.4 hPa NE 14 km/h 18.5 km/h 66% 0.0 mm
05:34 26.7 °C 19.8 °C 1010.0 hPa NNE 14 km/h 13 km/h 66% 0.0 mm
05:39 26.7 °C 19.6 °C 1010.0 hPa NNO 10 km/h 14.8 km/h 65% 0.0 mm
05:44 26.8 °C 19.4 °C 1010.0 hPa OSO 10 km/h 14.8 km/h 64% 0.0 mm
05:49 26.8 °C 19.2 °C 1010.6 hPa NO 9.5 km/h 14.8 km/h 63% 0.0 mm
05:54 27.1 °C 18.4 °C 1010.6 hPa Este 9.5 km/h 16.7 km/h 59% 0.0 mm
05:59 27.5 °C 18.5 °C 1010.6 hPa Este 9.5 km/h 16.7 km/h 58% 0.0 mm
06:04 27.6 °C 18.9 °C 1010.4 hPa NNE 9.5 km/h 16.7 km/h 59% 0.0 mm
06:09 27.4 °C 18.7 °C 1010.4 hPa NE 10.3 km/h 18.5 km/h 59% 0.0 mm
06:14 27.4 °C 18.4 °C 1010.4 hPa NE 10.3 km/h 14.8 km/h 58% 0.0 mm
06:19 27.5 °C 18.5 °C 1009.9 hPa NE 10 km/h 11.1 km/h 58% 0.0 mm
06:24 27.6 °C 18.3 °C 1009.9 hPa North 10 km/h 11.1 km/h 57% 0.0 mm
06:29 27.6 °C 18.3 °C 1009.9 hPa Sur 6.9 km/h 7.4 km/h 57% 0.0 mm
06:34 27.8 °C 17.9 °C 1009.9 hPa SE 6.9 km/h 9.3 km/h 55% 0.0 mm
06:39 28.6 °C 17.2 °C 1009.9 hPa SE 6.4 km/h 20.4 km/h 50% 0.0 mm
06:44 28.8 °C 18.3 °C 1009.9 hPa North 6.4 km/h 16.7 km/h 53% 0.0 mm
06:49 28.3 °C 18.4 °C 1010.5 hPa NNO 8.7 km/h 7.4 km/h 55% 0.0 mm
06:54 27.9 °C 18.6 °C 1010.5 hPa North 8.7 km/h 9.5 km/h 57% 0.0 mm
06:59 27.6 °C 18.6 °C 1010.5 hPa NE 6.4 km/h 8.4 km/h 58% 0.0 mm
07:04 27.5 °C 18.5 °C 1010.2 hPa ENE 6.4 km/h 3.7 km/h 58% 0.0 mm
07:09 27.4 °C 18.7 °C 1010.2 hPa NNE 3.9 km/h 5.8 km/h 59% 0.0 mm
07:14 27.3 °C 18.8 °C 1010.2 hPa NO 3.9 km/h 7.4 km/h 60% 0.0 mm
07:19 27.1 °C 18.9 °C 1010.3 hPa NO 4.7 km/h 7.4 km/h 61% 0.0 mm
07:24 26.9 °C 19 °C 1010.3 hPa NO 4.7 km/h 7.6 km/h 62% 0.0 mm
07:29 26.8 °C 19.2 °C 1010.3 hPa NNE 5 km/h 5.6 km/h 63% 0.0 mm
07:34 26.7 °C 19.1 °C 1010.4 hPa North 5 km/h 9.3 km/h 63% 0.0 mm
07:39 26.7 °C 19.1 °C 1010.4 hPa North 2.9 km/h 3.9 km/h 63% 0.0 mm
07:44 26.7 °C 19.1 °C 1010.4 hPa NNE 2.9 km/h 7.4 km/h 63% 0.0 mm
07:49 26.8 °C 19.2 °C 1010.6 hPa NNE 2.9 km/h 3.7 km/h 63% 0.0 mm
07:54 26.8 °C 19.2 °C 1010.6 hPa NNE 2.9 km/h 3.7 km/h 63% 0.0 mm
07:59 26.8 °C 19.4 °C 1010.6 hPa NNE 2.9 km/h 3.7 km/h 64% 0.0 mm
08:04 26.8 °C 19.4 °C 1010.6 hPa NNE 2.9 km/h 3.7 km/h 64% 0.0 mm
08:09 26.8 °C 19.4 °C 1010.6 hPa NNE 2.3 km/h   64% 0.0 mm
08:14 26.9 °C 19.8 °C 1010.6 hPa NNE 2.3 km/h   65% 0.0 mm
08:19 26.9 °C 19.5 °C 1010.6 hPa Calm     64% 0.0 mm
08:24 27 °C 19.6 °C 1010.6 hPa Calm   4.7 km/h 64% 0.0 mm
08:29 27.1 °C 19.7 °C 1010.6 hPa NNE 2.3 km/h 3.7 km/h 64% 0.0 mm
08:34 27.2 °C 19.6 °C 1010.5 hPa NNE 2.3 km/h 3.7 km/h 63% 0.0 mm
08:39 27.3 °C 19.6 °C 1010.5 hPa NNE 2.3 km/h 5.6 km/h 63% 0.0 mm
08:44 27.4 °C 19.7 °C 1010.5 hPa NNE 2.3 km/h 3.9 km/h 63% 0.0 mm
08:49 27.5 °C 19.8 °C 1010.4 hPa NNE 2.9 km/h 3.7 km/h 63% 0.0 mm
08:54 27.7 °C 20 °C 1010.4 hPa NNE 2.9 km/h   63% 0.0 mm
08:59 27.9 °C 19.7 °C 1010.4 hPa Calm     61% 0.0 mm
09:04 28.2 °C 19.4 °C 1010.4 hPa Calm   5.6 km/h 59% 0.0 mm
09:09 28.6 °C 19.2 °C 1010.4 hPa Sur 2.3 km/h 7.4 km/h 57% 0.0 mm
09:14 28.7 °C 19.1 °C 1010.4 hPa SO 2.3 km/h 4.7 km/h 56% 0.0 mm
09:19 28.8 °C 19.2 °C 1010.7 hPa SO 3.9 km/h 5.6 km/h 56% 0.0 mm
09:24 29 °C 19.3 °C 1010.7 hPa SE 3.9 km/h 7.4 km/h 56% 0.0 mm
09:29 29.2 °C 19.5 °C 1010.7 hPa ESE 2.9 km/h 3.9 km/h 56% 0.0 mm
09:34 29.4 °C 19.4 °C 1010.8 hPa SSO 2.9 km/h 3.2 km/h 55% 0.0 mm
09:39 29.5 °C 19.2 °C 1010.8 hPa OSO 2.9 km/h 5 km/h 54% 0.0 mm
09:44 29.6 °C 19.6 °C 1010.8 hPa OSO 2.9 km/h   55% 0.0 mm
09:49 29.7 °C 19.1 °C 1010.8 hPa NE 2.3 km/h 3.7 km/h 53% 0.0 mm
09:54 29.8 °C 19.5 °C 1010.8 hPa ENE 2.3 km/h 5.6 km/h 54% 0.0 mm
09:59 29.9 °C 19.6 °C 1010.8 hPa ENE 2.3 km/h 3.2 km/h 54% 0.0 mm
10:04 30 °C 19.4 °C 1010.7 hPa NO 2.3 km/h 5.6 km/h 53% 0.0 mm
10:09 29.9 °C 19.3 °C 1010.7 hPa NE 3.2 km/h 7.4 km/h 53% 0.0 mm
10:14 29.9 °C 19.6 °C 1010.7 hPa NNE 3.2 km/h 7.6 km/h 54% 0.0 mm
10:19 29.8 °C 18.9 °C 1010.7 hPa NE 4.7 km/h 7.4 km/h 52% 0.0 mm
10:24 29.8 °C 19.5 °C 1010.7 hPa NE 4.7 km/h 6.4 km/h 54% 0.0 mm
10:29 29.9 °C 19.6 °C 1010.7 hPa NE 3.9 km/h 6.9 km/h 54% 0.0 mm
10:34 30.1 °C 19.4 °C 1010.6 hPa North 3.9 km/h 7.6 km/h 53% 0.0 mm
10:39 30.2 °C 19.6 °C 1010.6 hPa NE 4.7 km/h 7.4 km/h 53% 0.0 mm
10:44 30.3 °C 19.7 °C 1010.6 hPa NE 4.7 km/h 7.4 km/h 53% 0.0 mm
10:49 30.5 °C 19.2 °C 1010.8 hPa NE 4.7 km/h 5.6 km/h 51% 0.0 mm
10:54 30.7 °C 19.4 °C 1010.8 hPa NE 4.7 km/h 11.1 km/h 51% 0.0 mm
10:59 30.9 °C 19.6 °C 1010.8 hPa NE 5 km/h 8.4 km/h 51% 0.0 mm
11:04 31.1 °C 19.4 °C 1010.6 hPa SE 5 km/h 9.3 km/h 50% 0.0 mm
11:09 31.3 °C 19.3 °C 1010.6 hPa NNE 6.4 km/h 9.3 km/h 49% 0.0 mm
11:14 31.5 °C 19.2 °C 1010.6 hPa NE 6.4 km/h 9.3 km/h 48% 0.0 mm
11:19 31.7 °C 19.3 °C 1010.5 hPa NE 6.4 km/h 7.4 km/h 48% 0.0 mm
11:24 31.8 °C 19.1 °C 1010.5 hPa North 6.4 km/h 9.3 km/h 47% 0.0 mm
11:29 31.9 °C 18.8 °C 1010.5 hPa NNE 6.9 km/h 14.8 km/h 46% 0.0 mm
11:34 32 °C 17.8 °C 1010.2 hPa NNE 6.9 km/h 13 km/h 43% 0.0 mm
11:39 32.3 °C 17.8 °C 1010.2 hPa NNE 10 km/h 14.8 km/h 42% 0.0 mm
11:44 32.6 °C 18 °C 1010.2 hPa North 10 km/h 12.2 km/h 42% 0.0 mm
11:49 32.9 °C 17.5 °C 1010.0 hPa NNE 8.4 km/h 13 km/h 40% 0.0 mm
11:54 33.2 °C 17.4 °C 1010.0 hPa North 8.4 km/h 13 km/h 39% 0.0 mm
11:59 33.4 °C 17.6 °C 1010.0 hPa NE 9.5 km/h 10 km/h 39% 0.0 mm
12:04 33.6 °C 16.9 °C 1009.8 hPa NE 9.5 km/h 11.1 km/h 37% 0.0 mm
12:09 33.7 °C 17 °C 1009.8 hPa NNE 8.4 km/h 11.9 km/h 37% 0.0 mm
12:14 33.8 °C 17.1 °C 1009.8 hPa NNE 8.4 km/h 14.8 km/h 37% 0.0 mm
12:19 34 °C 17.3 °C 1009.8 hPa North 8.4 km/h 13 km/h 37% 0.0 mm
12:24 34.3 °C 17.5 °C 1009.8 hPa NNE 8.4 km/h 13 km/h 37% 0.0 mm
12:29 34.7 °C 17.9 °C 1009.8 hPa NNE 8.4 km/h 13 km/h 37% 0.0 mm
12:34 34.9 °C 17.2 °C 1009.8 hPa North 8.4 km/h 7.4 km/h 35% 0.0 mm
12:39 35.2 °C 16.9 °C 1009.8 hPa NE 8.7 km/h 13 km/h 34% 0.0 mm
12:44 35.3 °C 16.6 °C 1009.8 hPa NE 8.7 km/h 12.2 km/h 33% 0.0 mm
12:49 35.4 °C 16.2 °C 1009.4 hPa NE 8.4 km/h 13 km/h 32% 0.0 mm
12:54 35.5 °C 15.8 °C 1009.4 hPa NNE 8.4 km/h 13 km/h 31% 0.0 mm
12:59 35.8 °C 16.1 °C 1009.4 hPa North 5 km/h 12.2 km/h 31% 0.0 mm
13:04 35.9 °C 16.1 °C 1009.2 hPa North 5 km/h 11.1 km/h 31% 0.0 mm
13:09 36.3 °C 16.4 °C 1009.2 hPa NNO 5.8 km/h 8.7 km/h 31% 0.0 mm
13:14 36.6 °C 16.2 °C 1009.2 hPa NNE 5.8 km/h 11.1 km/h 30% 0.0 mm
13:19 36.7 °C 16.3 °C 1009.1 hPa NNO 7.6 km/h 11.1 km/h 30% 0.0 mm
13:24 36.8 °C 15.3 °C 1009.1 hPa ONO 7.6 km/h 16.7 km/h 28% 0.0 mm
13:29 36.8 °C 15.3 °C 1009.1 hPa NE 8.7 km/h 10 km/h 28% 0.0 mm
13:34 36.9 °C 15.9 °C 1009.1 hPa ESE 8.7 km/h 7.4 km/h 29% 0.0 mm
13:39 37.2 °C 13.9 °C 1009.1 hPa SSE 8.4 km/h 20.4 km/h 25% 0.0 mm
13:44 37.4 °C 14.1 °C 1009.1 hPa Sur 8.4 km/h 27.8 km/h 25% 0.0 mm
13:49 37.6 °C 13.6 °C 1009.0 hPa SSO 19 km/h 27.8 km/h 24% 0.0 mm
13:54 37.6 °C 13.6 °C 1009.0 hPa SSE 19 km/h 25.9 km/h 24% 0.0 mm
13:59 37.5 °C 13.5 °C 1009.0 hPa SSE 16.1 km/h 27.8 km/h 24% 0.0 mm
14:04 37.6 °C 13.6 °C 1008.9 hPa SSE 16.1 km/h 22.2 km/h 24% 0.0 mm
14:09 37.7 °C 13.7 °C 1008.9 hPa Sur 14.8 km/h 22.2 km/h 24% 0.0 mm
14:14 37.8 °C 13.1 °C 1008.9 hPa Sur 14.8 km/h 25.9 km/h 23% 0.0 mm
14:19 37.9 °C 13.2 °C 1008.6 hPa SE 16.1 km/h 22.2 km/h 23% 0.0 mm
14:24 38 °C 13.3 °C 1008.6 hPa SSO 16.1 km/h 33.3 km/h 23% 0.0 mm
14:29 38 °C 13.3 °C 1008.6 hPa Sur 18.3 km/h 25.1 km/h 23% 0.0 mm
14:34 37.9 °C 13.2 °C 1008.4 hPa Sur 18.3 km/h 29.1 km/h 23% 0.0 mm
14:39 37.9 °C 13.2 °C 1008.4 hPa Sur 22 km/h 29.6 km/h 23% 0.0 mm
14:44 38.1 °C 13.3 °C 1008.4 hPa SSO 22 km/h 25.9 km/h 23% 0.0 mm
14:49 38.3 °C 13.5 °C 1008.1 hPa Sur 14 km/h 22.2 km/h 23% 0.0 mm
14:54 38.6 °C 13.1 °C 1008.1 hPa SO 14 km/h 25.6 km/h 22% 0.0 mm
14:59 38.8 °C 13.3 °C 1008.1 hPa Sur 14.8 km/h 22 km/h 22% 0.0 mm
15:04 39 °C 12.7 °C 1008.0 hPa SO 14.8 km/h 22.2 km/h 21% 0.0 mm
15:09 38.9 °C 12.6 °C 1008.0 hPa SSE 14.8 km/h 31.7 km/h 21% 0.0 mm
15:14 38.8 °C 13.3 °C 1008.0 hPa SSE 14.8 km/h 29.6 km/h 22% 0.0 mm
15:19 38.7 °C 13.2 °C 1007.9 hPa Sur 18 km/h 18 km/h 22% 0.0 mm
15:24 38.6 °C 13.1 °C 1007.9 hPa Sur 18 km/h 22.2 km/h 22% 0.0 mm
15:29 38.5 °C 13 °C 1007.9 hPa Sur 14 km/h 22.2 km/h 22% 0.0 mm
15:34 38.4 °C 12.9 °C 1007.9 hPa Sur 14 km/h 24.1 km/h 22% 0.0 mm
15:39 38.4 °C 12.9 °C 1007.9 hPa SSO 15.6 km/h 21.7 km/h 22% 0.0 mm
15:44 38.5 °C 13 °C 1007.9 hPa Sur 15.6 km/h 27.8 km/h 22% 0.0 mm
15:49 38.5 °C 13 °C 1007.9 hPa SE 15.6 km/h 31.5 km/h 22% 0.0 mm
15:54 38.4 °C 12.9 °C 1007.9 hPa SSE 15.6 km/h 25.9 km/h 22% 0.0 mm
15:59 38.3 °C 12.8 °C 1007.9 hPa SSO 18 km/h 28.2 km/h 22% 0.0 mm
16:04 38.4 °C 13.6 °C 1007.9 hPa SSO 18 km/h 25.9 km/h 23% 0.0 mm
16:09 38.4 °C 12.9 °C 1007.9 hPa Sur 15.6 km/h 19.8 km/h 22% 0.0 mm
16:14 38.4 °C 12.9 °C 1007.9 hPa SSO 15.6 km/h 31.5 km/h 22% 0.0 mm
16:19 38.3 °C 12.8 °C 1007.8 hPa Sur 16.4 km/h 14.8 km/h 22% 0.0 mm
16:24 38.2 °C 12.8 °C 1007.8 hPa SSO 16.4 km/h 18.5 km/h 22% 0.0 mm
16:29 38.2 °C 12.8 °C 1007.8 hPa Sur 14 km/h 25.9 km/h 22% 0.0 mm
16:34 38.1 °C 12.7 °C 1007.7 hPa SSO 14 km/h 24.1 km/h 22% 0.0 mm
16:39 38.1 °C 12.7 °C 1007.7 hPa SE 18.3 km/h 29.6 km/h 22% 0.0 mm
16:44 37.9 °C 13.2 °C 1007.7 hPa SSE 18.3 km/h 31.5 km/h 23% 0.0 mm
16:49 37.9 °C 12.5 °C 1007.4 hPa Sur 21.7 km/h 40.7 km/h 22% 0.0 mm
16:54 37.7 °C 13 °C 1007.4 hPa SE 21.7 km/h 40.7 km/h 23% 0.0 mm
16:59 37.8 °C 13.1 °C 1007.4 hPa Sur 26.2 km/h 44.4 km/h 23% 0.0 mm
17:04 37.9 °C 12.5 °C 1007.1 hPa Sur 26.2 km/h 48.1 km/h 22% 0.0 mm
17:09 37.8 °C 13.1 °C 1007.1 hPa SSE 24.5 km/h 31.5 km/h 23% 0.0 mm
17:14 37.8 °C 13.1 °C 1007.1 hPa SO 24.5 km/h 33.3 km/h 23% 0.0 mm
17:19 37.8 °C 13.1 °C 1006.9 hPa Sur 19.8 km/h 27.8 km/h 23% 0.0 mm
17:24 37.8 °C 13.1 °C 1006.9 hPa Sur 19.8 km/h 37 km/h 23% 0.0 mm
17:29 37.8 °C 13.1 °C 1006.9 hPa SSO 25.1 km/h 37 km/h 23% 0.0 mm
17:34 37.8 °C 13.1 °C 1006.7 hPa Sur 25.1 km/h 39.6 km/h 23% 0.0 mm
17:39 37.7 °C 13 °C 1006.7 hPa SSE 26.2 km/h 38.9 km/h 23% 0.0 mm
17:44 37.7 °C 13 °C 1006.7 hPa SO 26.2 km/h 25.1 km/h 23% 0.0 mm
17:49 37.7 °C 13 °C 1006.5 hPa SSE 22.5 km/h 24.1 km/h 23% 0.0 mm
17:54 37.8 °C 13.1 °C 1006.5 hPa Sur 22.5 km/h 33.3 km/h 23% 0.0 mm
17:59 37.9 °C 13.2 °C 1006.5 hPa SE 19 km/h 16.7 km/h 23% 0.0 mm
18:04 38.2 °C 13.4 °C 1006.1 hPa SSE 19 km/h 22.2 km/h 23% 0.0 mm
18:09 38 °C 12.6 °C 1006.1 hPa SSE 16.1 km/h 25.9 km/h 22% 0.0 mm
18:14 38 °C 13.3 °C 1006.1 hPa SE 16.1 km/h 20.4 km/h 23% 0.0 mm
18:19 37.9 °C 13.2 °C 1005.9 hPa SE 14 km/h 22.2 km/h 23% 0.0 mm
18:24 37.7 °C 13 °C 1005.9 hPa SSE 14 km/h 27.8 km/h 23% 0.0 mm
18:29 37.6 °C 12.9 °C 1005.9 hPa Sur 15.6 km/h 22 km/h 23% 0.0 mm
18:34 37.4 °C 13.4 °C 1006.1 hPa SE 15.6 km/h 14.8 km/h 24% 0.0 mm
18:39 37.3 °C 13.3 °C 1006.1 hPa SSE 15.6 km/h 29.6 km/h 24% 0.0 mm
18:44 37.2 °C 13.3 °C 1006.1 hPa SSO 15.6 km/h 24.1 km/h 24% 0.0 mm
18:49 37.1 °C 13.2 °C 1005.8 hPa SE 14.8 km/h 20.4 km/h 24% 0.0 mm
18:54 37 °C 13.1 °C 1005.8 hPa Sur 14.8 km/h 13 km/h 24% 0.0 mm
18:59 36.9 °C 13.6 °C 1005.8 hPa SE 10 km/h 18.5 km/h 25% 0.0 mm
19:04 36.9 °C 13.6 °C 1005.8 hPa Este 10 km/h 11.1 km/h 25% 0.0 mm
19:09 36.8 °C 14.7 °C 1005.8 hPa ESE 10.3 km/h 16.7 km/h 27% 0.0 mm
19:14 36.6 °C 14.6 °C 1005.8 hPa Este 10.3 km/h 20.4 km/h 27% 0.0 mm
19:19 36.4 °C 14.4 °C 1006.0 hPa SE 12.2 km/h 13 km/h 27% 0.0 mm
19:24 36.3 °C 14.9 °C 1006.0 hPa ESE 12.2 km/h 13.7 km/h 28% 0.0 mm
19:29 36.2 °C 14.8 °C 1006.0 hPa Este 7.6 km/h 13 km/h 28% 0.0 mm
19:34 35.9 °C 15.1 °C 1005.9 hPa Este 7.6 km/h 14.8 km/h 29% 0.0 mm
19:39 35.7 °C 14.9 °C 1005.9 hPa ESE 10 km/h 16.7 km/h 29% 0.0 mm
19:44 35.4 °C 14.7 °C 1005.9 hPa ESE 10 km/h 16.1 km/h 29% 0.0 mm
19:49 35.3 °C 15.1 °C 1006.2 hPa ESE 11.1 km/h 14.8 km/h 30% 0.0 mm
19:54 35.2 °C 15 °C 1006.2 hPa SE 11.1 km/h 25.6 km/h 30% 0.0 mm
19:59 35 °C 14.8 °C 1006.2 hPa SSE 16.4 km/h 22.2 km/h 30% 0.0 mm
20:04 35 °C 14.8 °C 1006.6 hPa Sur 16.4 km/h 16.4 km/h 30% 0.0 mm
20:09 34.9 °C 14.8 °C 1006.6 hPa SSE 14.8 km/h 25.9 km/h 30% 0.0 mm
20:14 34.6 °C 15.5 °C 1006.6 hPa Sur 14.8 km/h 40.7 km/h 32% 0.0 mm
20:19 33.8 °C 15.7 °C 1007.0 hPa SSE 18 km/h 36.2 km/h 34% 0.0 mm
20:24 33.2 °C 16.1 °C 1007.0 hPa ESE 18 km/h 22.2 km/h 36% 0.0 mm
20:29 32.8 °C 15.8 °C 1007.0 hPa SE 18.3 km/h 20.4 km/h 36% 0.0 mm
20:34 32.8 °C 16.2 °C 1006.7 hPa NE 18.3 km/h 5.6 km/h 37% 0.0 mm
20:39 32.7 °C 16.1 °C 1006.7 hPa NO 6.9 km/h 11.1 km/h 37% 0.0 mm
20:44 32.6 °C 16.4 °C 1006.7 hPa NNE 6.9 km/h 11.1 km/h 38% 0.0 mm
20:49 32.3 °C 16.2 °C 1006.8 hPa NE 8.4 km/h 16.7 km/h 38% 0.0 mm
20:54 32.2 °C 16.5 °C 1006.8 hPa NE 8.4 km/h 11.1 km/h 39% 0.0 mm
20:59 32.2 °C 16.1 °C 1006.8 hPa ENE 6.4 km/h 5.6 km/h 38% 0.0 mm
21:04 32.2 °C 16.5 °C 1006.7 hPa ENE 6.4 km/h   39% 0.0 mm
21:09 32.2 °C 16.5 °C 1006.7 hPa Calm   2.9 km/h 39% 0.0 mm
21:14 32.2 °C 16.1 °C 1006.7 hPa Calm   7.4 km/h 38% 0.0 mm
21:19 32.1 °C 16.4 °C 1006.5 hPa NO 3.2 km/h 7.4 km/h 39% 0.0 mm
21:24 31.9 °C 16.2 °C 1006.5 hPa NNE 3.2 km/h 9.3 km/h 39% 0.0 mm
21:29 31.8 °C 16.6 °C 1006.5 hPa NNO 5.8 km/h 5.6 km/h 40% 0.0 mm
21:34 31.6 °C 16.3 °C 1006.6 hPa NE 5.8 km/h 9.3 km/h 40% 0.0 mm
21:39 31.4 °C 16.6 °C 1006.6 hPa NE 5.8 km/h 7.4 km/h 41% 0.0 mm
21:44 31.4 °C 16.6 °C 1006.6 hPa North 5.8 km/h 5.6 km/h 41% 0.0 mm
21:49 31.3 °C 16.5 °C 1006.9 hPa NNO 3.9 km/h 11.1 km/h 41% 0.0 mm
21:54 31.1 °C 16.7 °C 1006.9 hPa ENE 3.9 km/h 9.3 km/h 42% 0.0 mm
21:59 30.8 °C 16.4 °C 1006.9 hPa NNE 5.8 km/h 7.4 km/h 42% 0.0 mm
22:04 30.7 °C 16.3 °C 1007.2 hPa NNE 5.8 km/h 7.4 km/h 42% 0.0 mm
22:09 30.6 °C 16.6 °C 1007.2 hPa ESE 6.4 km/h 7.4 km/h 43% 0.0 mm
22:14 30.5 °C 16.5 °C 1007.2 hPa ESE 6.4 km/h 3.7 km/h 43% 0.0 mm
22:19 30.4 °C 16.4 °C 1008.3 hPa ENE 3.9 km/h 3.7 km/h 43% 0.0 mm
22:24 30.4 °C 16.4 °C 1008.3 hPa NE 3.9 km/h 7.4 km/h 43% 0.0 mm
22:29 30.3 °C 16.7 °C 1008.3 hPa NE 3.9 km/h 5.6 km/h 44% 0.0 mm
22:34 30.2 °C 16.6 °C 1008.8 hPa ENE 3.9 km/h 9.5 km/h 44% 0.0 mm
22:39 30.1 °C 16.8 °C 1008.8 hPa NE 6.9 km/h 13 km/h 45% 0.0 mm
22:44 29.9 °C 16.7 °C 1008.8 hPa ENE 6.9 km/h 11.1 km/h 45% 0.0 mm
22:49 29.9 °C 17 °C 1008.7 hPa NNE 6.9 km/h 13 km/h 46% 0.0 mm
22:54 29.7 °C 16.8 °C 1008.7 hPa NNO 6.9 km/h 9.3 km/h 46% 0.0 mm
22:59 29.6 °C 17.1 °C 1008.7 hPa Este 6.9 km/h 7.4 km/h 47% 0.0 mm
23:04 29.4 °C 17.2 °C 1009.2 hPa NNO 6.9 km/h 14.8 km/h 48% 0.0 mm
23:09 29.3 °C 18.1 °C 1009.2 hPa NNE 8.4 km/h 14.8 km/h 51% 0.0 mm
23:14 29.1 °C 18.8 °C 1009.2 hPa NE 8.4 km/h 16.7 km/h 54% 0.0 mm
23:19 28.8 °C 18.8 °C 1009.5 hPa North 11.1 km/h 18.5 km/h 55% 0.0 mm
23:24 28.7 °C 19.1 °C 1009.5 hPa NE 11.1 km/h 20.4 km/h 56% 0.0 mm
23:29 28.6 °C 18.9 °C 1009.5 hPa NE 13 km/h 16.7 km/h 56% 0.0 mm
23:34 28.6 °C 18.9 °C 1009.3 hPa NNE 13 km/h 22.2 km/h 56% 0.0 mm
23:39 28.7 °C 18.8 °C 1009.3 hPa NE 16.4 km/h 27.8 km/h 55% 0.0 mm
23:44 28.8 °C 17.9 °C 1009.3 hPa Este 16.4 km/h 14.8 km/h 52% 0.0 mm
23:49 28.9 °C 17.7 °C 1009.2 hPa NO 9.5 km/h 9.3 km/h 51% 0.0 mm
23:54 29 °C 17.5 °C 1009.2 hPa Este 9.5 km/h 13 km/h 50% 0.0 mm
23:59 29.1 °C 16.9 °C 1009.2 hPa NE 7.6 km/h 14.8 km/h 48% 0.0 mm
Murcia-Puente Tocinos, España
Compliments of Weather Underground - 3 mb

La estación de MeteoMurcia.com, publica sus datos en los siguientes proyectos:

Weather Underground PWS IMURCIAP2 Meteoclimatic www.awekas.at

W3Counter
Web Analytics